createdAt,value
2022-08-14T00:02:31.274Z,21.27
2022-08-14T00:05:00.950Z,21.15
2022-08-14T00:07:29.949Z,21.06
2022-08-14T00:10:49.207Z,21.05
2022-08-14T00:12:56.760Z,21.09
2022-08-14T00:15:37.718Z,21.05
2022-08-14T00:18:30.530Z,21.04
2022-08-14T00:21:10.802Z,20.95
2022-08-14T00:23:41.429Z,20.95
2022-08-14T00:26:22.054Z,20.96
2022-08-14T00:28:52.667Z,20.91
2022-08-14T00:31:34.832Z,20.79
2022-08-14T00:34:37.870Z,20.70
2022-08-14T00:37:01.921Z,20.61
2022-08-14T00:39:31.838Z,20.55
2022-08-14T00:42:02.212Z,20.50
2022-08-14T00:44:33.291Z,20.51
2022-08-14T00:47:03.870Z,20.57
2022-08-14T00:49:38.065Z,20.54
2022-08-14T00:52:17.781Z,20.54
2022-08-14T00:54:52.909Z,20.53
2022-08-14T00:57:33.582Z,20.55
2022-08-14T01:00:08.379Z,20.52
2022-08-14T01:02:57.001Z,20.50
2022-08-14T01:05:41.830Z,20.43
2022-08-14T01:08:58.296Z,20.43
2022-08-14T01:11:10.588Z,20.39
2022-08-14T01:13:43.072Z,20.31
2022-08-14T01:16:15.102Z,20.31
2022-08-14T01:19:02.512Z,20.21
2022-08-14T01:21:38.756Z,20.37
2022-08-14T01:24:24.743Z,20.32
2022-08-14T01:27:01.600Z,20.21
2022-08-14T01:29:58.176Z,20.08
2022-08-14T01:32:23.091Z,20.03
2022-08-14T01:35:18.445Z,20.00
2022-08-14T01:37:56.543Z,19.97
2022-08-14T01:40:36.892Z,19.94
2022-08-14T01:43:18.608Z,19.86
2022-08-14T01:45:57.818Z,19.86
2022-08-14T01:48:36.978Z,19.81
2022-08-14T01:51:18.972Z,19.89
2022-08-14T01:53:55.049Z,19.95
2022-08-14T01:56:37.399Z,19.87
2022-08-14T01:59:10.226Z,19.63
2022-08-14T02:01:58.209Z,19.55
2022-08-14T02:04:54.988Z,19.58
2022-08-14T02:07:27.212Z,19.56
2022-08-14T02:10:15.870Z,19.54
2022-08-14T02:12:54.054Z,19.42
2022-08-14T02:15:26.568Z,19.49
2022-08-14T02:17:55.334Z,19.53
2022-08-14T02:20:24.824Z,19.37
2022-08-14T02:22:54.706Z,19.32
2022-08-14T02:25:29.869Z,19.41
2022-08-14T02:28:24.523Z,19.40
2022-08-14T02:30:52.411Z,19.37
2022-08-14T02:33:23.312Z,19.34
2022-08-14T02:36:05.097Z,19.20
2022-08-14T02:38:42.089Z,19.21
2022-08-14T02:41:15.240Z,19.17
2022-08-14T02:43:46.464Z,19.15
2022-08-14T02:46:20.436Z,19.20
2022-08-14T02:49:04.033Z,19.14
2022-08-14T02:51:36.960Z,18.98
2022-08-14T02:54:07.171Z,18.86
2022-08-14T02:57:39.203Z,18.78
2022-08-14T02:59:33.736Z,18.78
2022-08-14T03:02:04.677Z,18.73
2022-08-14T03:04:34.606Z,18.62
2022-08-14T03:07:07.903Z,18.60
2022-08-14T03:10:26.251Z,18.60
2022-08-14T03:12:32.358Z,18.68
2022-08-14T03:15:14.195Z,18.71
2022-08-14T03:17:56.863Z,18.71
2022-08-14T03:20:28.295Z,18.62
2022-08-14T03:23:03.348Z,18.64
2022-08-14T03:25:34.194Z,18.66
2022-08-14T03:28:14.697Z,18.59
2022-08-14T03:31:00.195Z,18.41
2022-08-14T03:33:38.035Z,18.50
2022-08-14T03:37:52.101Z,18.46
2022-08-14T03:39:15.269Z,18.45
2022-08-14T03:41:53.754Z,18.41
2022-08-14T03:45:26.800Z,18.33
2022-08-14T03:47:15.333Z,18.43
2022-08-14T03:49:50.079Z,18.43
2022-08-14T03:52:39.142Z,18.41
2022-08-14T03:55:09.911Z,18.40
2022-08-14T03:57:41.648Z,18.40
2022-08-14T04:00:40.534Z,18.42
2022-08-14T04:03:06.506Z,18.44
2022-08-14T04:05:42.833Z,18.44
2022-08-14T04:08:29.710Z,18.45
2022-08-14T04:11:00.968Z,18.49
2022-08-14T04:13:33.814Z,18.41
2022-08-14T04:16:06.981Z,18.34
2022-08-14T04:18:43.889Z,18.28
2022-08-14T04:21:14.920Z,18.22
2022-08-14T04:23:48.994Z,18.19
2022-08-14T04:26:42.579Z,18.15
2022-08-14T04:29:16.145Z,18.19
2022-08-14T04:33:01.502Z,18.20
2022-08-14T04:34:41.969Z,18.15
2022-08-14T04:37:28.635Z,18.13
2022-08-14T04:40:15.250Z,18.06
2022-08-14T04:43:03.002Z,18.10
2022-08-14T04:45:40.632Z,18.10
2022-08-14T04:48:31.623Z,18.15
2022-08-14T04:51:07.824Z,18.09
2022-08-14T04:53:42.975Z,18.07
2022-08-14T04:56:31.119Z,18.08
2022-08-14T04:59:10.005Z,18.09
2022-08-14T05:01:44.811Z,18.01
2022-08-14T05:04:20.792Z,18.12
2022-08-14T05:06:54.148Z,18.12
2022-08-14T05:09:28.798Z,18.32
2022-08-14T05:12:04.218Z,18.39
2022-08-14T05:14:54.771Z,18.42
2022-08-14T05:17:32.157Z,18.42
2022-08-14T05:21:58.349Z,18.43
2022-08-14T05:23:04.125Z,18.43
2022-08-14T05:25:33.710Z,18.43
2022-08-14T05:28:12.457Z,18.49
2022-08-14T05:30:47.008Z,18.53
2022-08-14T05:33:16.235Z,18.57
2022-08-14T05:35:48.451Z,18.60
2022-08-14T05:38:30.870Z,18.57
2022-08-14T05:41:02.356Z,18.50
2022-08-14T05:43:41.365Z,18.43
2022-08-14T05:46:15.247Z,18.44
2022-08-14T05:48:45.397Z,18.38
2022-08-14T05:51:15.767Z,18.37
2022-08-14T05:54:00.337Z,18.34
2022-08-14T05:56:37.152Z,18.39
2022-08-14T05:59:05.863Z,18.47
2022-08-14T06:01:36.738Z,18.58
2022-08-14T06:04:05.780Z,18.69
2022-08-14T06:06:38.465Z,18.82
2022-08-14T06:09:09.876Z,18.92
2022-08-14T06:11:39.031Z,19.09
2022-08-14T06:14:20.965Z,19.18
2022-08-14T06:16:53.471Z,19.29
2022-08-14T06:19:23.477Z,19.42
2022-08-14T06:21:59.217Z,19.48
2022-08-14T06:24:30.682Z,19.55
2022-08-14T06:27:06.418Z,19.67
2022-08-14T06:29:40.500Z,19.68
2022-08-14T06:32:38.010Z,19.70
2022-08-14T06:35:02.762Z,19.79
2022-08-14T06:37:43.843Z,19.84
2022-08-14T06:40:16.612Z,19.92
2022-08-14T06:42:57.164Z,19.95
2022-08-14T06:45:30.319Z,19.98
2022-08-14T06:47:59.187Z,20.04
2022-08-14T06:50:30.415Z,20.02
2022-08-14T06:53:00.512Z,20.05
2022-08-14T06:55:29.654Z,20.07
2022-08-14T06:57:58.366Z,20.12
2022-08-14T07:00:30.469Z,20.18
2022-08-14T07:03:19.209Z,20.26
2022-08-14T07:05:55.819Z,20.29
2022-08-14T07:08:32.112Z,20.42
2022-08-14T07:11:04.333Z,20.45
2022-08-14T07:13:34.630Z,20.57
2022-08-14T07:16:05.899Z,20.67
2022-08-14T07:18:37.143Z,20.78
2022-08-14T07:21:10.238Z,20.85
2022-08-14T07:23:44.107Z,20.95
2022-08-14T07:26:13.586Z,21.01
2022-08-14T07:28:44.170Z,21.12
2022-08-14T07:31:13.892Z,21.20
2022-08-14T07:33:50.814Z,21.36
2022-08-14T07:36:26.942Z,21.47
2022-08-14T07:39:00.960Z,21.54
2022-08-14T07:41:35.593Z,21.61
2022-08-14T07:44:32.935Z,21.72
2022-08-14T07:46:54.733Z,21.83
2022-08-14T07:49:24.477Z,21.92
2022-08-14T07:51:54.100Z,22.02
2022-08-14T07:54:29.976Z,22.12
2022-08-14T07:57:00.757Z,22.23
2022-08-14T07:59:42.305Z,22.33
2022-08-14T08:02:19.116Z,22.42
2022-08-14T08:04:54.205Z,22.45
2022-08-14T08:07:24.066Z,22.53
2022-08-14T08:09:57.816Z,22.61
2022-08-14T08:12:30.854Z,22.72
2022-08-14T08:15:07.335Z,22.83
2022-08-14T08:17:42.524Z,22.82
2022-08-14T08:20:27.396Z,22.90
2022-08-14T08:23:00.459Z,23.01
2022-08-14T08:25:39.813Z,23.17
2022-08-14T08:28:22.145Z,23.26
2022-08-14T08:30:56.704Z,23.32
2022-08-14T08:33:32.262Z,23.50
2022-08-14T08:36:13.043Z,23.56
2022-08-14T08:39:17.145Z,23.73
2022-08-14T08:41:45.488Z,23.81
2022-08-14T08:44:33.078Z,23.96
2022-08-14T08:47:06.126Z,24.13
2022-08-14T08:49:52.905Z,24.24
2022-08-14T08:52:31.553Z,24.35
2022-08-14T08:55:04.710Z,24.55
2022-08-14T08:57:37.946Z,24.79
2022-08-14T09:00:25.230Z,25.04
2022-08-14T09:02:57.615Z,25.19
2022-08-14T09:05:27.357Z,25.29
2022-08-14T09:07:56.825Z,25.36
2022-08-14T09:10:27.236Z,25.52
2022-08-14T09:12:58.814Z,25.74
2022-08-14T09:15:36.817Z,26.02
2022-08-14T09:18:14.012Z,26.03
2022-08-14T09:20:49.869Z,26.21
2022-08-14T09:23:20.353Z,26.43
2022-08-14T09:26:05.003Z,26.71
2022-08-14T09:28:51.319Z,26.96
2022-08-14T09:31:20.250Z,27.05
2022-08-14T09:34:19.691Z,27.21
2022-08-14T09:37:00.253Z,27.31
2022-08-14T09:39:47.826Z,27.57
2022-08-14T09:42:33.273Z,28.00
2022-08-14T09:45:15.565Z,28.35
2022-08-14T09:47:49.094Z,28.64
2022-08-14T09:50:26.011Z,28.91
2022-08-14T09:53:03.733Z,29.16
2022-08-14T09:55:42.413Z,29.10
2022-08-14T09:58:19.301Z,28.98
2022-08-14T10:00:52.776Z,28.88
2022-08-14T10:03:33.400Z,28.94
2022-08-14T10:06:08.792Z,29.14
2022-08-14T10:08:50.713Z,29.29
2022-08-14T10:11:23.845Z,29.39
2022-08-14T10:13:55.998Z,29.69
2022-08-14T10:16:33.277Z,29.83
2022-08-14T10:19:05.651Z,29.93
2022-08-14T10:21:38.764Z,30.03
2022-08-14T10:24:36.774Z,30.25
2022-08-14T10:27:17.238Z,30.30
2022-08-14T10:29:50.184Z,30.59
2022-08-14T10:32:28.848Z,30.82
2022-08-14T10:35:13.340Z,30.91
2022-08-14T10:37:48.757Z,31.12
2022-08-14T10:40:37.554Z,31.42
2022-08-14T10:43:22.624Z,31.58
2022-08-14T10:46:03.926Z,31.80
2022-08-14T10:48:58.446Z,32.16
2022-08-14T10:51:30.088Z,31.89
2022-08-14T10:54:26.106Z,32.28
2022-08-14T10:56:59.744Z,32.70
2022-08-14T10:59:30.935Z,32.37
2022-08-14T11:02:04.378Z,32.04
2022-08-14T11:04:36.088Z,32.46
2022-08-14T11:07:19.281Z,32.43
2022-08-14T11:09:56.013Z,32.17
2022-08-14T11:12:34.133Z,32.44
2022-08-14T11:15:06.411Z,32.87
2022-08-14T11:17:37.520Z,33.08
2022-08-14T11:20:14.150Z,32.87
2022-08-14T11:22:56.458Z,32.59
2022-08-14T11:25:43.350Z,32.45
2022-08-14T11:28:19.185Z,32.47
2022-08-14T11:30:53.484Z,32.59
2022-08-14T11:33:24.760Z,32.56
2022-08-14T11:35:59.446Z,32.72
2022-08-14T11:38:29.628Z,32.69
2022-08-14T11:41:00.376Z,33.12
2022-08-14T11:43:30.568Z,33.53
2022-08-14T11:46:03.540Z,34.12
2022-08-14T11:49:02.201Z,34.59
2022-08-14T11:51:53.593Z,34.52
2022-08-14T11:54:34.294Z,34.34
2022-08-14T11:57:05.660Z,34.30
2022-08-14T11:59:34.336Z,34.55
2022-08-14T12:03:00.730Z,34.89
2022-08-14T12:05:09.318Z,34.99
2022-08-14T12:07:50.700Z,35.59
2022-08-14T12:10:26.831Z,35.90
2022-08-14T12:13:17.506Z,35.92
2022-08-14T12:15:51.544Z,35.90
2022-08-14T12:18:32.401Z,35.89
2022-08-14T12:21:15.724Z,35.88
2022-08-14T12:24:01.890Z,35.64
2022-08-14T12:26:39.651Z,35.70
2022-08-14T12:29:13.208Z,35.88
2022-08-14T12:31:44.852Z,35.94
2022-08-14T12:34:20.067Z,35.97
2022-08-14T12:36:50.221Z,35.89
2022-08-14T12:39:22.965Z,36.10
2022-08-14T12:41:57.477Z,36.39
2022-08-14T12:44:34.943Z,36.41
2022-08-14T12:47:06.277Z,36.63
2022-08-14T12:49:35.591Z,36.88
2022-08-14T12:52:11.875Z,36.59
2022-08-14T12:54:57.513Z,36.69
2022-08-14T12:57:38.124Z,37.05
2022-08-14T13:00:22.729Z,37.39
2022-08-14T13:02:55.553Z,37.65
2022-08-14T13:05:27.756Z,37.58
2022-08-14T13:07:57.324Z,37.58
2022-08-14T13:10:46.571Z,37.21
2022-08-14T13:13:18.122Z,36.88
2022-08-14T13:15:56.187Z,36.72
2022-08-14T13:18:27.785Z,37.00
2022-08-14T13:21:02.306Z,37.32
2022-08-14T13:23:36.048Z,37.78
2022-08-14T13:26:08.421Z,37.76
2022-08-14T13:29:01.498Z,37.73
2022-08-14T13:31:34.566Z,37.75
2022-08-14T13:34:04.508Z,37.69
2022-08-14T13:36:54.940Z,37.47
2022-08-14T13:39:24.748Z,37.75
2022-08-14T13:41:55.626Z,37.35
2022-08-14T13:44:28.917Z,37.03
2022-08-14T13:46:58.570Z,37.04
2022-08-14T13:49:29.217Z,37.26
2022-08-14T13:51:59.799Z,37.06
2022-08-14T13:54:32.747Z,37.23
2022-08-14T13:57:03.764Z,37.16
2022-08-14T13:59:37.882Z,37.47
2022-08-14T14:02:09.113Z,37.70
2022-08-14T14:04:40.949Z,37.75
2022-08-14T14:07:13.553Z,37.59
2022-08-14T14:09:52.652Z,37.13
2022-08-14T14:12:37.637Z,37.07
2022-08-14T14:15:14.115Z,37.44
2022-08-14T14:17:48.200Z,37.49
2022-08-14T14:20:35.702Z,37.28
2022-08-14T14:23:10.506Z,37.36
2022-08-14T14:25:47.967Z,37.56
2022-08-14T14:28:24.531Z,37.85
2022-08-14T14:30:57.219Z,37.93
2022-08-14T14:33:49.579Z,37.64
2022-08-14T14:36:26.555Z,37.59
2022-08-14T14:38:57.489Z,37.24
2022-08-14T14:41:37.928Z,37.38
2022-08-14T14:44:15.634Z,37.74
2022-08-14T14:46:53.258Z,37.89
2022-08-14T14:49:31.864Z,37.55
2022-08-14T14:52:17.263Z,37.29
2022-08-14T14:54:52.501Z,37.75
2022-08-14T14:57:21.608Z,37.93
2022-08-14T14:59:51.743Z,38.01
2022-08-14T15:02:32.165Z,37.86
2022-08-14T15:05:02.841Z,38.17
2022-08-14T15:07:32.027Z,38.41
2022-08-14T15:10:02.259Z,38.36
2022-08-14T15:12:55.218Z,38.26
2022-08-14T15:15:24.482Z,38.24
2022-08-14T15:17:54.825Z,38.01
2022-08-14T15:20:30.336Z,38.09
2022-08-14T15:23:12.345Z,37.88
2022-08-14T15:25:42.151Z,37.60
2022-08-14T15:28:13.174Z,37.52
2022-08-14T15:30:58.913Z,37.58
2022-08-14T15:34:13.312Z,37.53
2022-08-14T15:36:31.761Z,37.45
2022-08-14T15:39:00.418Z,37.04
2022-08-14T15:41:41.197Z,36.96
2022-08-14T15:44:18.961Z,37.08
2022-08-14T15:46:58.288Z,37.39
2022-08-14T15:49:34.635Z,37.72
2022-08-14T15:52:05.215Z,37.60
2022-08-14T15:54:35.031Z,37.75
2022-08-14T15:57:08.489Z,37.50
2022-08-14T15:59:55.409Z,37.43
2022-08-14T16:02:28.174Z,37.43
2022-08-14T16:04:56.998Z,37.11
2022-08-14T16:07:27.278Z,37.15
2022-08-14T16:10:27.344Z,37.39
2022-08-14T16:12:47.627Z,37.05
2022-08-14T16:15:17.908Z,36.91
2022-08-14T16:17:49.935Z,36.88
2022-08-14T16:20:42.079Z,36.87
2022-08-14T16:23:11.585Z,37.01
2022-08-14T16:25:43.555Z,36.58
2022-08-14T16:28:27.046Z,36.27
2022-08-14T16:30:56.299Z,36.18
2022-08-14T16:33:56.604Z,35.96
2022-08-14T16:36:30.172Z,35.87
2022-08-14T16:39:01.857Z,35.86
2022-08-14T16:41:31.211Z,35.85
2022-08-14T16:44:02.704Z,35.77
2022-08-14T16:46:38.360Z,35.68
2022-08-14T16:49:16.110Z,35.52
2022-08-14T16:51:52.687Z,35.39
2022-08-14T16:54:35.052Z,35.39
2022-08-14T16:57:22.863Z,35.35
2022-08-14T16:59:57.816Z,35.38
2022-08-14T17:02:39.676Z,35.36
2022-08-14T17:05:21.550Z,35.27
2022-08-14T17:08:28.585Z,34.96
2022-08-14T17:11:10.836Z,34.73
2022-08-14T17:13:58.007Z,34.66
2022-08-14T17:16:35.606Z,34.54
2022-08-14T17:19:05.655Z,34.24
2022-08-14T17:21:40.995Z,34.12
2022-08-14T17:24:56.885Z,34.03
2022-08-14T17:27:04.279Z,33.75
2022-08-14T17:29:44.987Z,33.71
2022-08-14T17:32:30.067Z,33.47
2022-08-14T17:35:16.369Z,33.35
2022-08-14T17:37:55.572Z,33.22
2022-08-14T17:40:31.356Z,33.04
2022-08-14T17:43:02.544Z,32.90
2022-08-14T17:45:47.010Z,32.73
2022-08-14T17:49:10.016Z,32.66
2022-08-14T17:51:23.392Z,32.33
2022-08-14T17:54:02.617Z,32.25
2022-08-14T17:56:34.437Z,32.08
2022-08-14T17:59:07.548Z,32.00
2022-08-14T18:01:45.911Z,31.93
2022-08-14T18:04:27.776Z,31.66
2022-08-14T18:07:16.469Z,31.54
2022-08-14T18:09:56.723Z,31.40
2022-08-14T18:12:37.128Z,31.14
2022-08-14T18:15:15.950Z,31.03
2022-08-14T18:17:53.374Z,30.98
2022-08-14T18:21:41.869Z,30.97
2022-08-14T18:23:15.404Z,30.96
2022-08-14T18:25:53.278Z,30.95
2022-08-14T18:28:51.601Z,30.92
2022-08-14T18:31:43.612Z,30.89
2022-08-14T18:34:32.260Z,30.80
2022-08-14T18:37:17.991Z,30.69
2022-08-14T18:40:01.939Z,30.40
2022-08-14T18:42:52.943Z,30.27
2022-08-14T18:45:28.907Z,30.23
2022-08-14T18:48:50.599Z,30.22
2022-08-14T18:51:46.171Z,30.12
2022-08-14T18:54:33.123Z,30.05
2022-08-14T18:57:04.116Z,29.98
2022-08-14T18:59:42.329Z,29.89
2022-08-14T19:02:43.403Z,29.76
2022-08-14T19:05:14.306Z,29.64
2022-08-14T19:07:48.082Z,29.59
2022-08-14T19:10:32.004Z,29.52
2022-08-14T19:13:12.990Z,29.49
2022-08-14T19:15:45.691Z,29.51
2022-08-14T19:18:28.219Z,29.47
2022-08-14T19:21:00.536Z,29.39
2022-08-14T19:23:42.256Z,29.29
2022-08-14T19:26:36.075Z,29.29
2022-08-14T19:29:39.873Z,29.19
2022-08-14T19:32:36.471Z,29.18
2022-08-14T19:35:16.579Z,29.09
2022-08-14T19:37:52.748Z,29.05
2022-08-14T19:40:33.386Z,29.01
2022-08-14T19:43:06.614Z,28.97
2022-08-14T19:45:39.115Z,28.90
2022-08-14T19:48:15.751Z,28.86
2022-08-14T19:50:47.004Z,28.82
2022-08-14T19:53:18.304Z,28.68
2022-08-14T19:55:59.888Z,28.56
2022-08-14T19:58:54.925Z,28.44
2022-08-14T20:01:37.642Z,28.33
2022-08-14T20:04:45.422Z,28.27
2022-08-14T20:07:01.885Z,28.24
2022-08-14T20:11:05.840Z,28.20
2022-08-14T20:12:36.722Z,28.18
2022-08-14T20:15:21.412Z,28.11
2022-08-14T20:17:52.692Z,27.96
2022-08-14T20:20:31.526Z,27.92
2022-08-14T20:23:11.498Z,27.67
2022-08-14T20:25:45.275Z,27.53
2022-08-14T20:28:35.388Z,27.53
2022-08-14T20:31:17.665Z,27.39
2022-08-14T20:34:06.940Z,27.42
2022-08-14T20:36:40.924Z,27.40
2022-08-14T20:39:15.242Z,27.36
2022-08-14T20:41:51.078Z,27.19
2022-08-14T20:44:55.438Z,27.10
2022-08-14T20:47:25.892Z,26.99
2022-08-14T20:50:18.671Z,26.96
2022-08-14T20:52:53.071Z,26.91
2022-08-14T20:55:29.376Z,26.89
2022-08-14T20:58:02.740Z,26.84
2022-08-14T21:00:51.669Z,26.74
2022-08-14T21:03:31.990Z,26.52
2022-08-14T21:06:17.220Z,26.49
2022-08-14T21:08:51.743Z,26.48
2022-08-14T21:11:23.362Z,26.44
2022-08-14T21:14:24.994Z,26.41
2022-08-14T21:16:58.491Z,26.36
2022-08-14T21:19:30.197Z,26.35
2022-08-14T21:22:02.379Z,26.31
2022-08-14T21:24:39.957Z,26.31
2022-08-14T21:27:21.670Z,26.21
2022-08-14T21:29:55.592Z,26.12
2022-08-14T21:32:50.012Z,25.99
2022-08-14T21:35:22.930Z,25.91
2022-08-14T21:37:52.762Z,25.85
2022-08-14T21:40:41.892Z,25.82
2022-08-14T21:43:18.469Z,25.74
2022-08-14T21:45:53.154Z,25.72
2022-08-14T21:48:25.313Z,25.68
2022-08-14T21:51:52.905Z,25.78
2022-08-14T21:53:58.895Z,25.67
2022-08-14T21:56:37.597Z,25.55
2022-08-14T21:59:09.781Z,25.54
2022-08-14T22:01:59.639Z,25.43
2022-08-14T22:04:33.781Z,25.38
2022-08-14T22:07:07.522Z,25.41
2022-08-14T22:09:37.181Z,25.28
2022-08-14T22:12:08.726Z,25.37
2022-08-14T22:14:43.204Z,25.27
2022-08-14T22:17:16.498Z,25.22
2022-08-14T22:19:55.048Z,25.19
2022-08-14T22:22:27.736Z,25.12
2022-08-14T22:24:59.675Z,25.00
2022-08-14T22:27:29.520Z,24.96
2022-08-14T22:30:00.550Z,24.90
2022-08-14T22:32:56.078Z,24.95
2022-08-14T22:35:19.335Z,24.83
2022-08-14T22:38:34.958Z,24.76
2022-08-14T22:41:01.916Z,24.82
2022-08-14T22:43:37.962Z,24.79
2022-08-14T22:46:15.065Z,24.75
2022-08-14T22:48:51.004Z,24.66
2022-08-14T22:51:23.389Z,24.60
2022-08-14T22:53:55.483Z,24.50
2022-08-14T22:56:29.213Z,24.46
2022-08-14T22:59:01.260Z,24.40
2022-08-14T23:01:55.046Z,24.45
2022-08-14T23:04:35.692Z,24.25
2022-08-14T23:07:22.009Z,24.30
2022-08-14T23:10:31.161Z,24.29
2022-08-14T23:12:48.974Z,24.29
2022-08-14T23:15:29.853Z,24.21
2022-08-14T23:17:59.107Z,24.19
2022-08-14T23:20:29.685Z,24.07
2022-08-14T23:22:58.523Z,24.05
2022-08-14T23:25:44.668Z,23.92
2022-08-14T23:28:33.519Z,23.98
2022-08-14T23:31:15.039Z,23.93
2022-08-14T23:34:06.677Z,23.89
2022-08-14T23:36:52.705Z,23.90
2022-08-14T23:39:29.915Z,23.86
2022-08-14T23:42:04.586Z,23.80
2022-08-14T23:44:37.285Z,23.67
2022-08-14T23:47:11.867Z,23.71
2022-08-14T23:50:00.900Z,23.69
2022-08-14T23:53:06.331Z,23.60
2022-08-14T23:55:29.318Z,23.47
2022-08-14T23:58:00.547Z,23.43
